createdAt,value
2022-11-13T00:02:15.122Z,89.23
2022-11-13T00:04:44.848Z,89.20
2022-11-13T00:07:14.585Z,89.12
2022-11-13T00:09:46.485Z,88.67
2022-11-13T00:12:20.907Z,88.66
2022-11-13T00:14:56.134Z,89.33
2022-11-13T00:17:28.885Z,89.14
2022-11-13T00:20:01.612Z,89.17
2022-11-13T00:22:38.879Z,89.95
2022-11-13T00:25:14.731Z,90.62
2022-11-13T00:27:44.448Z,89.88
2022-11-13T00:30:19.302Z,89.79
2022-11-13T00:32:51.132Z,89.45
2022-11-13T00:35:20.122Z,89.73
2022-11-13T00:38:01.112Z,88.61
2022-11-13T00:40:33.580Z,89.23
2022-11-13T00:43:02.901Z,89.45
2022-11-13T00:45:31.497Z,89.89
2022-11-13T00:48:02.504Z,88.63
2022-11-13T00:50:36.642Z,90.26
2022-11-13T00:53:18.331Z,90.25
2022-11-13T00:55:52.390Z,90.25
2022-11-13T00:58:20.714Z,89.22
2022-11-13T01:01:28.938Z,90.16
2022-11-13T01:04:01.409Z,89.29
2022-11-13T01:06:41.563Z,89.74
2022-11-13T01:09:13.152Z,90.13
2022-11-13T01:11:43.363Z,90.15
2022-11-13T01:14:12.633Z,89.46
2022-11-13T01:16:41.585Z,89.81
2022-11-13T01:19:13.040Z,89.69
2022-11-13T01:21:42.529Z,88.89
2022-11-13T01:24:14.872Z,89.26
2022-11-13T01:26:51.406Z,89.26
2022-11-13T01:29:20.718Z,89.42
2022-11-13T01:31:49.563Z,89.44
2022-11-13T01:34:23.821Z,89.58
2022-11-13T01:36:55.890Z,89.41
2022-11-13T01:39:25.182Z,90.32
2022-11-13T01:41:54.038Z,90.27
2022-11-13T01:44:47.577Z,89.82
2022-11-13T01:47:17.129Z,89.93
2022-11-13T01:49:53.170Z,90.76
2022-11-13T01:55:21.462Z,90.65
2022-11-13T01:57:50.891Z,89.82
2022-11-13T02:00:20.079Z,90.00
2022-11-13T02:02:48.980Z,89.91
2022-11-13T02:05:19.584Z,90.16
2022-11-13T02:07:48.796Z,89.64
2022-11-13T02:10:18.107Z,89.77
2022-11-13T02:12:48.939Z,89.63
2022-11-13T02:15:21.654Z,89.35
2022-11-13T02:17:54.975Z,89.73
2022-11-13T02:20:34.124Z,89.48
2022-11-13T02:23:13.560Z,89.11
2022-11-13T02:25:46.360Z,89.26
2022-11-13T02:28:15.870Z,89.38
2022-11-13T02:30:45.373Z,89.23
2022-11-13T02:33:28.596Z,88.68
2022-11-13T02:36:02.172Z,89.71
2022-11-13T02:38:34.810Z,89.49
2022-11-13T02:41:06.806Z,88.98
2022-11-13T02:43:36.131Z,88.96
2022-11-13T02:46:05.122Z,89.82
2022-11-13T02:48:35.269Z,90.75
2022-11-13T02:51:07.980Z,89.38
2022-11-13T02:53:43.343Z,89.74
2022-11-13T02:56:52.671Z,89.90
2022-11-13T02:59:25.630Z,89.27
2022-11-13T03:01:54.931Z,89.54
2022-11-13T03:04:24.569Z,89.80
2022-11-13T03:06:56.995Z,89.81
2022-11-13T03:09:27.147Z,89.92
2022-11-13T03:11:57.110Z,89.94
2022-11-13T03:14:30.647Z,90.14
2022-11-13T03:17:11.760Z,89.43
2022-11-13T03:19:45.652Z,89.69
2022-11-13T03:22:22.255Z,89.38
2022-11-13T03:25:02.151Z,88.63
2022-11-13T03:27:34.314Z,89.14
2022-11-13T03:30:08.734Z,89.67
2022-11-13T03:32:38.061Z,88.91
2022-11-13T03:35:10.985Z,89.25
2022-11-13T03:37:40.799Z,88.99
2022-11-13T03:40:11.204Z,89.44
2022-11-13T03:42:40.459Z,89.12
2022-11-13T03:45:11.969Z,90.11
2022-11-13T03:47:41.535Z,89.89
2022-11-13T03:50:11.589Z,89.53
2022-11-13T03:52:43.989Z,89.61
2022-11-13T03:55:16.189Z,90.34
2022-11-13T03:57:45.317Z,90.07
2022-11-13T04:00:20.446Z,89.82
2022-11-13T04:02:55.001Z,90.60
2022-11-13T04:05:24.543Z,90.52
2022-11-13T04:07:56.986Z,88.94
2022-11-13T04:10:28.798Z,89.42
2022-11-13T04:13:01.020Z,89.48
2022-11-13T04:15:31.326Z,89.55
2022-11-13T04:18:00.563Z,90.10
2022-11-13T04:20:30.296Z,90.26
2022-11-13T04:22:59.786Z,89.77
2022-11-13T04:25:28.857Z,89.70
2022-11-13T04:27:57.704Z,89.72
2022-11-13T04:30:26.740Z,90.19
2022-11-13T04:32:57.150Z,90.40
2022-11-13T04:35:28.170Z,89.61
2022-11-13T04:37:57.088Z,89.98
2022-11-13T04:40:26.126Z,89.47
2022-11-13T04:42:53.818Z,89.01
2022-11-13T04:45:27.610Z,88.76
2022-11-13T04:47:57.780Z,89.16
2022-11-13T04:50:26.853Z,88.66
2022-11-13T04:52:55.778Z,89.29
2022-11-13T04:55:24.292Z,89.63
2022-11-13T04:57:55.681Z,88.70
2022-11-13T05:00:24.627Z,89.08
2022-11-13T05:02:53.380Z,88.96
2022-11-13T05:05:24.127Z,89.25
2022-11-13T05:07:54.658Z,89.73
2022-11-13T05:10:27.122Z,89.37
2022-11-13T05:13:01.432Z,89.45
2022-11-13T05:15:32.607Z,89.08
2022-11-13T05:18:03.771Z,88.57
2022-11-13T05:20:34.034Z,88.83
2022-11-13T05:23:05.631Z,88.68
2022-11-13T05:25:37.549Z,88.47
2022-11-13T05:28:09.263Z,89.14
2022-11-13T05:30:38.625Z,89.19
2022-11-13T05:33:10.421Z,88.90
2022-11-13T05:35:40.898Z,88.85
2022-11-13T05:38:10.399Z,88.58
2022-11-13T05:40:40.428Z,89.32
2022-11-13T05:43:09.695Z,88.90
2022-11-13T05:45:38.935Z,88.21
2022-11-13T05:48:08.072Z,88.99
2022-11-13T05:50:37.276Z,88.70
2022-11-13T05:53:07.195Z,88.54
2022-11-13T05:55:39.949Z,88.42
2022-11-13T05:58:12.231Z,88.26
2022-11-13T06:00:44.258Z,88.22
2022-11-13T06:03:17.642Z,88.17
2022-11-13T06:05:55.967Z,88.89
2022-11-13T06:08:37.270Z,88.56
2022-11-13T06:11:12.549Z,89.15
2022-11-13T06:16:42.171Z,88.95
2022-11-13T06:19:20.426Z,89.15
2022-11-13T07:25:02.450Z,87.49
2022-11-13T07:27:34.993Z,87.63
2022-11-13T07:30:07.261Z,87.33
2022-11-13T07:32:50.292Z,87.72
2022-11-13T07:35:22.375Z,87.69
2022-11-13T07:41:20.344Z,87.32
2022-11-13T07:43:52.198Z,87.52
2022-11-13T07:46:24.268Z,86.75
2022-11-13T07:48:59.669Z,87.15
2022-11-13T07:51:29.265Z,86.91
2022-11-13T07:54:00.303Z,90.41
2022-11-13T07:56:33.366Z,87.34
2022-11-13T07:59:02.713Z,89.60
2022-11-13T08:01:34.606Z,87.52
2022-11-13T08:04:11.737Z,85.27
2022-11-13T08:06:44.280Z,86.91
2022-11-13T08:09:14.953Z,86.56
2022-11-13T08:12:00.944Z,87.18
2022-11-13T08:14:43.926Z,87.03
2022-11-13T08:17:23.837Z,86.65
2022-11-13T08:19:58.804Z,87.14
2022-11-13T08:22:33.704Z,87.42
2022-11-13T08:25:05.184Z,92.56
2022-11-13T08:27:36.538Z,83.97
2022-11-13T08:30:10.519Z,80.94
2022-11-13T08:32:43.348Z,82.08
2022-11-13T08:35:17.477Z,80.23
2022-11-13T08:37:49.122Z,80.08
2022-11-13T08:40:20.858Z,81.93
2022-11-13T08:42:51.383Z,82.72
2022-11-13T08:45:20.910Z,84.10
2022-11-13T08:47:51.832Z,82.53
2022-11-13T08:50:29.542Z,83.28
2022-11-13T08:53:06.529Z,84.48
2022-11-13T08:55:37.119Z,84.78
2022-11-13T08:58:08.427Z,85.02
2022-11-13T09:00:41.115Z,84.72
2022-11-13T09:03:13.447Z,85.09
2022-11-13T09:05:44.401Z,84.76
2022-11-13T09:08:13.941Z,84.75
2022-11-13T09:10:46.370Z,85.25
2022-11-13T09:13:20.488Z,84.40
2022-11-13T09:15:52.575Z,84.47
2022-11-13T09:18:22.085Z,83.92
2022-11-13T09:20:55.479Z,83.95
2022-11-13T09:23:25.196Z,83.87
2022-11-13T09:25:55.582Z,84.14
2022-11-13T09:28:29.554Z,84.31
2022-11-13T09:30:59.422Z,84.36
2022-11-13T09:33:29.227Z,84.44
2022-11-13T09:36:06.644Z,83.69
2022-11-13T09:38:36.735Z,84.39
2022-11-13T09:41:15.253Z,84.16
2022-11-13T09:43:58.256Z,84.00
2022-11-13T09:46:40.793Z,83.17
2022-11-13T09:49:18.527Z,83.01
2022-11-13T09:52:04.006Z,82.50
2022-11-13T09:54:41.870Z,82.38
2022-11-13T09:57:27.052Z,82.64
2022-11-13T10:00:02.629Z,81.65
2022-11-13T10:02:48.374Z,81.86
2022-11-13T10:05:33.710Z,80.94
2022-11-13T10:08:09.475Z,81.41
2022-11-13T10:11:02.612Z,80.31
2022-11-13T10:13:39.613Z,80.34
2022-11-13T10:16:22.913Z,80.16
2022-11-13T10:18:52.730Z,79.94
2022-11-13T10:21:30.597Z,81.71
2022-11-13T10:24:02.267Z,80.16
2022-11-13T10:26:30.529Z,80.19
2022-11-13T10:29:03.510Z,79.07
2022-11-13T10:31:42.630Z,78.60
2022-11-13T10:34:11.909Z,78.57
2022-11-13T10:36:50.699Z,78.39
2022-11-13T10:39:18.479Z,77.73
2022-11-13T10:41:48.526Z,76.56
2022-11-13T10:44:27.838Z,75.44
2022-11-13T10:47:15.712Z,75.46
2022-11-13T10:49:46.432Z,75.93
2022-11-13T10:52:19.959Z,76.44
2022-11-13T10:54:48.889Z,76.18
2022-11-13T10:57:30.352Z,76.10
2022-11-13T10:59:58.302Z,75.70
2022-11-13T11:02:29.125Z,74.63
2022-11-13T11:05:06.474Z,74.86
2022-11-13T11:07:41.570Z,74.69
2022-11-13T11:10:22.946Z,74.63
2022-11-13T11:12:55.428Z,73.97
2022-11-13T11:15:26.483Z,74.34
2022-11-13T11:18:00.473Z,74.86
2022-11-13T11:20:43.754Z,74.00
2022-11-13T11:23:23.627Z,73.85
2022-11-13T11:25:57.925Z,73.63
2022-11-13T11:28:33.906Z,72.62
2022-11-13T11:31:11.185Z,71.99
2022-11-13T11:33:51.473Z,69.71
2022-11-13T11:36:32.585Z,67.36
2022-11-13T11:39:07.060Z,67.47
2022-11-13T11:41:39.907Z,66.89
2022-11-13T11:44:18.725Z,67.20
2022-11-13T11:46:47.004Z,66.31
2022-11-13T11:49:16.911Z,66.40
2022-11-13T11:51:57.641Z,64.92
2022-11-13T11:54:39.068Z,63.15
2022-11-13T11:57:20.759Z,62.13
2022-11-13T12:00:03.281Z,62.07
2022-11-13T12:03:06.082Z,63.46
2022-11-13T12:05:46.145Z,62.40
2022-11-13T12:08:23.350Z,61.47
2022-11-13T12:10:58.439Z,61.29
2022-11-13T12:13:32.416Z,63.13
2022-11-13T12:16:10.215Z,63.17
2022-11-13T12:18:49.324Z,62.73
2022-11-13T12:21:29.508Z,63.23
2022-11-13T12:24:16.724Z,63.79
2022-11-13T12:26:51.405Z,64.39
2022-11-13T12:29:35.805Z,65.88
2022-11-13T12:32:13.356Z,63.71
2022-11-13T12:34:48.570Z,62.48
2022-11-13T12:37:23.505Z,61.82
2022-11-13T12:39:57.866Z,61.11
2022-11-13T12:42:35.899Z,62.25
2022-11-13T12:45:15.172Z,64.28
2022-11-13T12:47:45.001Z,64.94
2022-11-13T12:50:31.486Z,63.83
2022-11-13T12:53:03.997Z,64.18
2022-11-13T12:55:34.530Z,64.82
2022-11-13T12:58:11.391Z,63.77
2022-11-13T13:00:42.329Z,62.88
2022-11-13T13:03:26.804Z,62.65
2022-11-13T13:06:10.328Z,62.04
2022-11-13T13:08:55.904Z,62.41
2022-11-13T13:11:33.060Z,63.08
2022-11-13T13:14:19.166Z,62.88
2022-11-13T13:16:47.351Z,61.95
2022-11-13T13:19:28.431Z,62.45
2022-11-13T13:21:56.512Z,61.96
2022-11-13T13:24:32.430Z,60.71
2022-11-13T13:27:00.746Z,60.65
2022-11-13T13:29:30.315Z,60.51
2022-11-13T13:32:11.599Z,60.44
2022-11-13T13:34:53.782Z,60.76
2022-11-13T13:37:31.092Z,60.51
2022-11-13T13:40:15.368Z,60.45
2022-11-13T13:43:07.798Z,60.53
2022-11-13T13:45:47.578Z,60.23
2022-11-13T13:48:20.130Z,60.57
2022-11-13T13:50:50.408Z,60.31
2022-11-13T13:53:23.354Z,59.80
2022-11-13T13:55:55.873Z,59.75
2022-11-13T13:58:28.080Z,59.84
2022-11-13T14:01:17.863Z,60.50
2022-11-13T14:03:46.826Z,60.27
2022-11-13T14:06:22.270Z,61.18
2022-11-13T14:09:09.531Z,60.11
2022-11-13T14:11:38.683Z,58.15
2022-11-13T14:14:39.901Z,56.22
2022-11-13T14:17:09.698Z,59.01
2022-11-13T14:19:38.133Z,56.33
2022-11-13T14:22:09.487Z,57.82
2022-11-13T14:24:47.228Z,59.00
2022-11-13T14:27:20.852Z,59.25
2022-11-13T14:29:50.988Z,58.50
2022-11-13T14:32:22.782Z,58.61
2022-11-13T14:34:53.012Z,59.66
2022-11-13T14:37:28.470Z,60.45
2022-11-13T14:39:59.340Z,60.48
2022-11-13T14:42:37.607Z,60.67
2022-11-13T14:45:18.525Z,60.93
2022-11-13T14:47:57.666Z,61.28
2022-11-13T14:50:28.226Z,61.48
2022-11-13T14:52:57.672Z,61.98
2022-11-13T14:55:46.312Z,62.30
2022-11-13T14:58:28.070Z,63.93
2022-11-13T15:00:57.746Z,64.75
2022-11-13T15:03:30.941Z,65.49
2022-11-13T15:05:59.441Z,65.85
2022-11-13T15:08:39.741Z,66.30
2022-11-13T15:11:17.288Z,66.98
2022-11-13T15:13:51.863Z,67.71
2022-11-13T15:16:27.504Z,67.69
2022-11-13T15:19:08.960Z,67.91
2022-11-13T15:21:37.515Z,67.92
2022-11-13T15:24:06.212Z,68.52
2022-11-13T15:26:34.133Z,69.36
2022-11-13T15:29:03.723Z,69.79
2022-11-13T15:31:34.874Z,72.36
2022-11-13T15:34:02.896Z,72.21
2022-11-13T15:36:31.525Z,72.27
2022-11-13T15:39:03.456Z,72.92
2022-11-13T15:41:35.070Z,73.07
2022-11-13T15:44:12.951Z,73.85
2022-11-13T16:22:09.376Z,81.39
2022-11-13T16:29:14.374Z,82.14
2022-11-13T16:31:37.272Z,83.33
2022-11-13T16:34:05.146Z,83.50
2022-11-13T16:36:32.942Z,83.56
2022-11-13T16:39:01.015Z,83.79
2022-11-13T16:41:32.422Z,84.52
2022-11-13T16:44:00.308Z,84.79
2022-11-13T16:46:30.641Z,84.47
2022-11-13T16:48:59.092Z,84.77
2022-11-13T16:51:27.357Z,84.38
2022-11-13T16:53:55.337Z,84.83
2022-11-13T16:56:28.989Z,85.16
2022-11-13T16:58:59.238Z,85.50
2022-11-13T17:01:27.427Z,86.10
2022-11-13T17:03:55.508Z,86.83
2022-11-13T17:06:26.819Z,86.23
2022-11-13T17:08:56.843Z,86.08
2022-11-13T17:11:26.073Z,86.06
2022-11-13T17:13:57.079Z,85.86
2022-11-13T17:16:28.042Z,87.03
2022-11-13T17:18:56.298Z,86.73
2022-11-13T17:21:26.210Z,86.16
2022-11-13T17:23:56.105Z,86.26
2022-11-13T17:26:24.373Z,86.77
2022-11-13T17:28:54.899Z,86.88
2022-11-13T17:31:22.978Z,87.17
2022-11-13T17:33:55.268Z,86.73
2022-11-13T17:36:23.783Z,87.14
2022-11-13T17:38:51.703Z,87.58
2022-11-13T17:41:20.185Z,88.32
2022-11-13T17:43:48.045Z,88.77
2022-11-13T17:46:17.790Z,87.71
2022-11-13T17:48:45.920Z,87.96
2022-11-13T17:51:16.485Z,87.85
2022-11-13T17:53:44.760Z,87.78
2022-11-13T17:56:13.794Z,87.53
2022-11-13T17:58:43.862Z,87.94
2022-11-13T18:01:14.241Z,88.43
2022-11-13T18:03:42.688Z,88.37
2022-11-13T18:06:13.617Z,88.13
2022-11-13T18:08:45.081Z,88.24
2022-11-13T18:11:16.019Z,88.41
2022-11-13T18:13:44.836Z,88.66
2022-11-13T18:16:15.041Z,88.14
2022-11-13T18:18:43.352Z,87.99
2022-11-13T18:21:22.381Z,88.38
2022-11-13T18:23:58.149Z,88.55
2022-11-13T18:26:26.538Z,88.05
2022-11-13T18:28:55.048Z,87.86
2022-11-13T18:31:23.578Z,88.35
2022-11-13T18:33:51.979Z,88.23
2022-11-13T18:36:20.776Z,88.09
2022-11-13T18:38:49.022Z,88.50
2022-11-13T18:41:20.184Z,88.35
2022-11-13T18:43:50.067Z,88.14
2022-11-13T18:46:20.732Z,88.60
2022-11-13T18:48:49.577Z,89.28
2022-11-13T18:51:20.148Z,88.21
2022-11-13T18:53:49.413Z,88.49
2022-11-13T18:56:20.635Z,87.83
2022-11-13T18:58:50.153Z,87.90
2022-11-13T19:01:22.673Z,88.05
2022-11-13T19:04:08.676Z,87.80
2022-11-13T19:06:40.117Z,88.11
2022-11-13T19:09:12.508Z,88.24
2022-11-13T19:11:42.518Z,88.30
2022-11-13T19:14:16.494Z,88.60
2022-11-13T19:16:44.443Z,88.56
2022-11-13T19:19:17.198Z,88.24
2022-11-13T19:21:45.482Z,88.91
2022-11-13T19:24:15.070Z,89.00
2022-11-13T19:26:45.137Z,89.36
2022-11-13T19:29:13.851Z,89.59
2022-11-13T19:31:41.922Z,90.44
2022-11-13T19:34:11.292Z,90.24
2022-11-13T19:36:41.222Z,90.22
2022-11-13T19:39:09.686Z,90.33
2022-11-13T19:41:37.631Z,89.31
2022-11-13T19:44:07.308Z,89.34
2022-11-13T19:46:35.458Z,89.25
2022-11-13T19:49:04.310Z,89.37
2022-11-13T19:51:33.100Z,89.85
2022-11-13T19:54:02.025Z,89.42
2022-11-13T19:56:30.605Z,89.12
2022-11-13T19:58:59.236Z,90.25
2022-11-13T20:01:32.161Z,89.86
2022-11-13T20:04:02.896Z,89.29
2022-11-13T20:06:33.245Z,90.17
2022-11-13T20:09:03.639Z,89.51
2022-11-13T20:11:32.544Z,89.50
2022-11-13T20:14:02.516Z,89.10
2022-11-13T20:16:32.313Z,88.88
2022-11-13T20:19:00.552Z,89.76
2022-11-13T20:21:31.494Z,89.89
2022-11-13T20:24:00.945Z,89.19
2022-11-13T20:26:32.162Z,89.70
2022-11-13T20:29:00.599Z,89.08
2022-11-13T20:31:33.403Z,93.28
2022-11-13T20:34:02.332Z,89.54
2022-11-13T20:36:30.612Z,88.73
2022-11-13T20:38:59.114Z,89.42
2022-11-13T20:41:27.527Z,89.19
2022-11-13T20:44:01.700Z,89.70
2022-11-13T20:46:30.467Z,89.07
2022-11-13T20:49:01.114Z,89.98
2022-11-13T20:51:30.265Z,89.21
2022-11-13T20:53:58.392Z,89.54
2022-11-13T20:56:27.924Z,89.10
2022-11-13T20:58:56.079Z,89.14
2022-11-13T21:01:26.370Z,88.53
2022-11-13T21:03:56.037Z,88.88
2022-11-13T21:06:26.227Z,88.82
2022-11-13T21:08:56.203Z,88.41
2022-11-13T21:11:26.468Z,89.53
2022-11-13T21:13:55.525Z,89.12
2022-11-13T21:16:24.392Z,88.98
2022-11-13T21:18:52.578Z,89.06
2022-11-13T21:21:23.180Z,88.34
2022-11-13T21:24:00.925Z,88.60
2022-11-13T21:26:29.513Z,88.70
2022-11-13T21:28:57.843Z,88.87
2022-11-13T21:31:25.727Z,88.62
2022-11-13T21:33:54.061Z,89.92
2022-11-13T21:36:23.908Z,89.08
2022-11-13T21:38:53.051Z,89.55
2022-11-13T21:41:24.584Z,89.64
2022-11-13T21:43:56.417Z,90.39
2022-11-13T21:46:25.272Z,89.84
2022-11-13T21:48:58.040Z,89.58
2022-11-13T21:51:25.998Z,89.66
2022-11-13T21:53:53.847Z,89.46
2022-11-13T21:56:23.595Z,89.59
2022-11-13T21:58:51.470Z,89.15
2022-11-13T22:01:19.821Z,89.54
2022-11-13T22:03:47.645Z,89.83
2022-11-13T22:06:18.061Z,90.40
2022-11-13T22:08:48.033Z,89.65
2022-11-13T22:11:15.857Z,89.53
2022-11-13T22:13:45.095Z,89.70
2022-11-13T22:16:13.682Z,89.91
2022-11-13T22:18:41.740Z,89.06
2022-11-13T22:21:11.685Z,89.13
2022-11-13T22:23:40.163Z,88.90
2022-11-13T22:26:09.860Z,89.45
2022-11-13T22:28:39.476Z,89.14
2022-11-13T22:31:12.346Z,89.37
2022-11-13T22:33:43.659Z,89.94
2022-11-13T22:36:16.072Z,89.33
2022-11-13T22:38:44.419Z,88.23
2022-11-13T22:41:22.615Z,89.57
2022-11-13T22:43:53.049Z,88.57
2022-11-13T22:46:24.127Z,88.62
2022-11-13T22:48:53.631Z,88.73
2022-11-13T22:51:23.206Z,89.47
2022-11-13T22:53:52.472Z,88.24
2022-11-13T22:56:21.527Z,88.24
2022-11-13T22:58:50.034Z,89.10
2022-11-13T23:01:20.153Z,88.88
2022-11-13T23:03:50.775Z,88.94
2022-11-13T23:06:20.552Z,88.70
2022-11-13T23:08:50.497Z,89.28
2022-11-13T23:11:20.832Z,88.51
2022-11-13T23:13:56.659Z,88.84
2022-11-13T23:16:26.481Z,88.96
2022-11-13T23:18:58.958Z,89.54
2022-11-13T23:21:28.179Z,89.45
2022-11-13T23:23:58.560Z,89.04
2022-11-13T23:26:27.986Z,88.84
2022-11-13T23:28:56.687Z,89.17
2022-11-13T23:31:24.967Z,89.27
2022-11-13T23:33:52.876Z,89.77
2022-11-13T23:36:22.247Z,89.14
2022-11-13T23:38:49.998Z,89.35
2022-11-13T23:41:17.931Z,89.02
2022-11-13T23:46:33.509Z,88.52
2022-11-13T23:49:01.326Z,89.42
2022-11-13T23:51:31.766Z,88.82
2022-11-13T23:53:59.735Z,89.81
2022-11-13T23:56:27.594Z,89.54
2022-11-13T23:58:55.405Z,89.44
